Date,TemperatureHighF,TemperatureAvgF,TemperatureLowF,DewpointHighF,DewpointAvgF,DewpointLowF,HumidityHigh,HumidityAvg,HumidityLow,PressureMaxIn,PressureMinIn,WindSpeedMaxMPH,WindSpeedAvgMPH,GustSpeedMaxMPH,PrecipitationSumIn
2013-6-1,73.3,66.1,61.2,66.4,60.9,55.8,97,84,55,29.87,29.66,14,7,21,0.01
2013-6-2,63.4,59.8,53.8,57.3,53.7,49.6,88,81,68,30.04,29.85,8,3,13,0.00
2013-6-3,70.2,59.9,46.5,56.8,51.4,44.8,95,75,57,30.11,29.97,5,2,11,0.00
2013-6-4,74.9,64.2,52.9,63.5,56.6,50.6,93,77,63,30.08,29.94,9,2,13,0.00
2013-6-5,74.6,67.1,56.8,65.2,61.3,54.9,95,82,68,30.01,29.86,7,2,10,0.01
2013-6-6,74.6,67.1,60.6,64.0,56.9,51.7,96,72,48,29.90,29.84,7,3,11,0.00
2013-6-7,71.0,63.1,54.6,59.1,55.6,51.9,92,77,58,29.94,29.89,8,2,11,0.00
2013-6-8,78.3,66.6,52.2,59.4,55.1,50.4,96,69,44,29.94,29.84,9,3,13,0.00
2013-6-9,74.3,66.4,62.1,64.2,60.6,55.5,96,82,67,29.87,29.72,11,6,16,0.10
2013-6-10,78.3,68.7,62.0,65.7,62.4,60.4,95,81,61,29.88,29.73,7,2,10,0.00
2013-6-11,89.0,75.9,60.7,74.3,67.8,59.1,96,78,54,29.90,29.75,13,4,15,0.00
2013-6-12,93.8,82.0,69.5,74.8,70.9,65.2,91,70,50,29.85,29.64,20,8,27,0.00
2013-6-13,83.4,74.5,67.0,65.2,60.7,55.2,83,64,41,29.98,29.75,10,4,20,0.00
2013-6-14,78.8,69.4,60.4,67.6,63.1,58.4,95,81,58,30.10,29.84,16,3,23,0.11
2013-6-15,88.8,74.1,66.5,76.1,68.4,63.1,96,83,61,30.05,29.85,31,6,37,1.71
2013-6-16,81.2,73.1,66.1,72.7,68.8,64.8,96,87,70,29.96,29.88,8,3,11,0.08
2013-6-17,82.8,74.9,67.1,73.1,69.2,65.8,97,84,61,29.95,29.87,7,2,11,0.00
2013-6-18,82.8,74.6,67.3,68.5,64.7,59.2,97,74,47,29.97,29.88,8,3,16,0.01
2013-6-19,83.9,73.3,62.5,68.1,63.2,59.2,92,73,45,30.06,29.97,5,1,8,0.00
2013-6-20,88.3,78.3,64.9,71.6,67.3,61.6,89,70,51,30.06,29.96,11,5,16,0.00
2013-6-21,91.5,82.9,73.6,76.3,72.4,67.5,82,71,57,30.01,29.87,12,8,19,0.00
2013-6-22,91.7,82.1,73.8,76.8,73.0,68.0,86,75,55,30.01,29.88,11,8,18,0.00
2013-6-23,87.8,73.6,69.0,75.6,68.2,66.1,95,84,63,29.99,29.80,15,6,23,0.87
2013-6-24,88.8,78.7,69.3,77.0,71.4,66.0,92,79,62,30.00,29.80,12,7,22,0.00
2013-6-25,88.5,81.5,75.1,77.6,73.6,69.9,86,77,67,29.88,29.74,13,6,19,0.00
2013-6-26,89.6,79.1,69.5,80.1,72.7,64.8,91,81,68,29.80,29.67,20,5,28,0.15
2013-6-27,88.8,79.4,69.9,73.9,70.0,66.0,88,74,54,29.90,29.79,8,2,10,0.00
2013-6-28,85.9,78.0,70.1,70.0,62.6,55.1,90,62,37,29.84,29.71,11,4,19,0.00
2013-6-29,78.1,69.5,63.3,65.2,61.5,58.6,93,76,59,29.79,29.67,11,5,23,0.33
2013-6-30,74.1,68.1,63.2,65.5,62.4,60.5,93,83,68,29.97,29.79,10,5,18,0.03